Pierre Brunet

Scout - AJ Auxerre
9 Dez 2027
Donnerstag
Verarbeitung

Persönlichkeit

Anpassungsfähigkeit (11) Ehrgeiz (5) Kontroverse (15) Loyalität (2) Druck (13) Professionalität (10) Fairness (1) Temperament (16)

Profil

Trainerstil Demokratisch
Lizenz Kontinentale C
Entschlossenheit 4
Menschenführung 13
Motivation 8
Disziplin 4
Arbeitszufriedenheit
100%
Ermüdung
0%
Rolle Scout
Gehalt 36.0K p/W
Vertrag 14.03.2028

Leistung

Verhalten Gut
Trainingseffektivität
39%
Spielerentwicklung
30%
Verletzungsprävention
30%
Taktische Umsetzung
25%

Letzte Ereignisse

Nahm an einer Scouting-Besprechung teil 7T her
Empfahl ein Transferziel 7T her
Nahm an einer Scouting-Besprechung teil 14T her
Empfahl ein Transferziel 14T her
Spieler begutachtet 14T her
Spieler begutachtet 14T her
Spieler begutachtet 21T her
Spieler begutachtet 21T her

Aktuell beobachtet

117
Spieler Verein Status Fähigkeit Vertrauen Beobachtet Zuletzt beobachtet Letzte Stimme
Mauro Carrizo Atlético Tucumán Aktiv 95 / 113 40% 2 24.11.2027 -
Alejandro Almaraz Nueva Chicago Aktiv 103 / 120 40% 1 24.11.2027 -
Giovanni Leoni Bradford City Aktiv 128 / 136 40% 3 23.11.2027 -
Lucas Mbamba Westerlo Aktiv 94 / 99 40% 1 20.11.2027 -
Ibrahim Coulibaly Clermont Foot Aktiv 126 / 125 40% 2 19.11.2027 -
Ayden Heaven Luton Town Aktiv 153 / 151 40% 3 18.11.2027 -
Hervin Goyes Deportivo Pasto Aktiv 96 / 106 40% 3 18.11.2027 -
Esquerdinha Shrewsbury Town Aktiv 123 / 123 40% 1 17.11.2027 -
Axel Tape Bayer Leverkusen Aktiv 132 / 125 40% 1 17.11.2027 -
Mikkel Hope Haugesund Aktiv 116 / 100 40% 5 16.11.2027 -
Honest Ahanor Atalanta Aktiv 137 / 151 40% 3 16.11.2027 -
Enzo Koffi Le Havre AC Aktiv 124 / 110 40% 2 15.11.2027 -
Joel Ezra Enyimba Aktiv 86 / 91 40% 1 15.11.2027 -
Louis Leroux FC Nantes Aktiv 119 / 141 40% 3 14.11.2027 -
Colin Guske Orlando City Aktiv 79 / 99 40% 1 14.11.2027 -
Khalis Merah Toulouse FC Aktiv 119 / 130 40% 4 13.11.2027 -
Lucas Høgsberg RC Strasbourg Aktiv 130 / 153 40% 7 12.11.2027 -
Dominik Chong Qui Atlanta United FC Aktiv 98 / 98 40% 2 12.11.2027 -
Christos Mouzakitis Hull City Aktiv 146 / 140 40% 4 11.11.2027 -
Josh Nichols Tranmere Rovers Aktiv 129 / 124 40% 2 11.11.2027 -
Nicolas Sport Recife Aktiv 115 / 114 40% 4 08.11.2027 -
Archie Gray Derby County Aktiv 158 / 144 40% 4 08.11.2027 -
Nika Kvaratskhelia Tskhinvali Aktiv 105 / 104 40% 1 07.11.2027 -
Alpha Touré FC Metz Aktiv 118 / 116 40% 1 06.11.2027 -
Luis Otávio Colorado Rapids Aktiv 103 / 135 40% 4 05.11.2027 -
Sebastián Ramírez Jaguares Aktiv 101 / 114 40% 5 24.10.2027 -
Jens Hjertø-Dahl Hull City Aktiv 132 / 139 40% 2 20.10.2027 -
Fillip Jenssen Riise Stabaek Aktiv 118 / 111 40% 1 20.10.2027 -
Kauã Moraes Cruzeiro Aktiv 125 / 133 40% 4 18.10.2027 -
Esteban de Lima Tacuarembo Aktiv 84 / 88 40% 2 18.10.2027 -
Muminhon Bahodirxonov Neftchi Aktiv 91 / 109 40% 1 17.10.2027 -
Pedro Soma San Diego Football Club Aktiv 87 / 97 40% 1 17.10.2027 -
Jovan Milosavljević Kalmar FF Aktiv 81 / 120 40% 1 14.10.2027 -
Nazareno Roselli Defensa y Justicia Aktiv 103 / 130 40% 2 09.10.2027 -
Agustín Obregón River Plate Aktiv 100 / 111 40% 2 09.10.2027 -
Olaniyi Saheed Kwara United Aktiv 88 / 83 40% 3 08.10.2027 -
Lucas Bergvall Tottenham Aktiv 150 / 154 40% 2 08.10.2027 -
Hosea Michael Remo Stars Aktiv 85 / 81 40% 4 06.10.2027 -
Gift Udoh Ikorodu City Aktiv 78 / 77 40% 2 05.10.2027 -
Diego Vargas San Marcos de Arica Aktiv 85 / 92 40% 1 03.10.2027 -
David Odogu AC Milan Aktiv 121 / 121 40% 2 02.10.2027 -
Mads Bomholt Stabaek Aktiv 123 / 104 40% 1 29.09.2027 -
Noah Mawete Kinsiona Waasland-Beveren Aktiv 96 / 107 40% 2 24.09.2027 -
Mpho Khethang AS Police Aktiv 78 / 85 40% 1 20.09.2027 -
Pape Diong Westerlo Aktiv 107 / 128 40% 4 19.09.2027 -
Josh King Chelsea Aktiv 151 / 148 40% 3 17.09.2027 -
David Valencia Alianza Petrolera Aktiv 120 / 139 40% 1 17.09.2027 -
Tyson Pearce St. Louis CITY SC Aktiv 78 / 81 40% 1 14.09.2027 -
José Correa Deportivo Tachira Aktiv 97 / 89 40% 1 14.09.2027 -
Mohamed Moussa Koïta Djoliba Aktiv 110 / 105 40% 2 12.09.2027 -
Mathys Angély VfL Wolfsburg Aktiv 114 / 132 40% 1 08.09.2027 -
Giacomo Raspadori Atalanta Aktiv 153 / 145 40% 1 10.08.2027 -
Petar Musa Adana Demirspor Aktiv 140 / 127 40% 2 02.08.2027 -
Morgan Whittaker Middlesbrough Aktiv 138 / 133 40% 1 02.08.2027 -
Yousef Salech Cardiff City Aktiv 138 / 136 40% 1 07.07.2027 -
Konstantin Tyukavin Inter Verhandlung 132 / 133 66% 1 01.06.2027 -
Martin Cedidla Spartak Moscow Verhandlung 131 / 132 66% 1 01.06.2027 -
Sampson Dweh Anderlecht Bericht bereit 133 / 134 66% 1 01.06.2027 -
Kota Tawaratsumida River Plate Verhandlung 133 / 136 66% 1 01.06.2027 -
Nicolás Fernández Mercau Shakhtar Aktiv 134 / 134 90% 1 01.06.2027 Befürworten
Cheveyo Tsawa Club Brugge Aktiv 129 / 126 40% 3 31.05.2027 -
Matías Gómez Granada Aktiv 104 / 130 40% 2 31.05.2027 -
Zane Albarus Cambridge United Aktiv 94 / 92 40% 1 30.05.2027 -
Finn Jeltsch VfB Stuttgart Aktiv 148 / 145 40% 1 29.05.2027 -
Percy Jali Free State Stars Aktiv 100 / 117 40% 3 28.05.2027 -
Warren Zaïre-Emery Paris Saint-Germain Aktiv 146 / 171 40% 5 25.05.2027 -
Riley Owen Trento Aktiv 100 / 108 40% 1 25.05.2027 -
Christ Inao Oulaï Fiorentina Aktiv 142 / 128 40% 2 23.05.2027 -
João Simões Sporting CP Aktiv 124 / 148 40% 3 22.05.2027 -
Dylan Lawlor Cardiff City Aktiv 120 / 111 40% 1 20.05.2027 -
Jofre Torrents Ajax Aktiv 116 / 135 40% 3 17.05.2027 -
Tiago Freitas Benfica Aktiv 111 / 122 40% 1 16.05.2027 -
Bernardo Lima Porto Aktiv 95 / 109 40% 1 15.05.2027 -
Davide Bartesaghi AC Milan Aktiv 140 / 146 40% 3 14.05.2027 -
Daniel Kelly Oxford United Aktiv 105 / 120 40% 1 14.05.2027 -
Sascha Britschgi Padova Aktiv 112 / 129 40% 1 12.05.2027 -
Ernie Weaver AFC Wimbledon Aktiv 99 / 105 40% 2 10.05.2027 -
Noah Nartey Olympique Lyonnais Aktiv 136 / 145 40% 2 06.05.2027 -
Kevin Vazquez Cruz Azul Aktiv 129 / 138 40% 2 02.05.2027 -
Jan Bürger Gillingham Aktiv 120 / 123 40% 3 29.04.2027 -
Caleb Yirenkyi Coventry City Aktiv 126 / 147 40% 3 24.04.2027 -
Toni Tamarit Alverca Aktiv 127 / 111 40% 2 23.04.2027 -
José Pachuca Puebla Aktiv 96 / 105 40% 1 21.04.2027 -
Adam Bakoune Ospitaletto Aktiv 99 / 110 40% 1 20.04.2027 -
Kazunari Kita Real Sociedad Aktiv 108 / 109 40% 2 19.04.2027 -
Yussif Saidu Zaragoza Aktiv 130 / 123 40% 1 18.04.2027 -
Martim Cunha Porto Aktiv 90 / 115 40% 1 14.04.2027 -
Keagan Tau Ajax Cape Town Aktiv 92 / 99 40% 1 07.04.2027 -
Daniel Vernattus Metalist Aktiv 86 / 102 40% 1 02.04.2027 -
Ibrahim Maza Bayer Leverkusen Aktiv 148 / 152 40% 1 31.03.2027 -
Gonçalo Oliveira Benfica Aktiv 109 / 126 40% 1 22.03.2027 -
Joaquin Seys Club Brugge Aktiv 127 / 142 40% 1 21.03.2027 -
Jack Hinshelwood Brighton Aktiv 134 / 145 40% 1 21.03.2027 -
Josh Tymon Swansea City Aktiv 127 / 127 40% 1 30.12.2026 -
Tiago Santos LOSC Lille Aktiv 157 / 141 40% 1 30.12.2026 -
Richard Gonzalez Chamois Niortais Aktiv 135 / 137 40% 2 29.12.2026 -
Marco Kana Anderlecht Aktiv 123 / 126 40% 1 27.12.2026 -
Abner Vinicius Olympique Lyonnais Aktiv 146 / 136 40% 1 27.12.2026 -
Doğucan Haspolat Westerlo Aktiv 112 / 116 40% 2 26.12.2026 -
Mats Wieffer Brighton Aktiv 146 / 137 40% 1 26.12.2026 -
Freddie Potts Club Brugge Aktiv 128 / 130 40% 2 25.12.2026 -
James Garner Everton Aktiv 155 / 161 40% 1 25.12.2026 -
Tyler Adams Bournemouth Aktiv 146 / 146 40% 2 23.12.2026 -
Omar Campos Cruz Azul Aktiv 126 / 129 40% 1 11.12.2026 -
Matteo Dams Club Brugge Aktiv 118 / 133 40% 2 05.12.2026 -
Harry Clarke Preston Aktiv 130 / 123 40% 1 05.12.2026 -
Ethan Galbraith Swansea City Aktiv 127 / 135 40% 1 04.12.2026 -
Kevin Amaro Racing Genk Aktiv 124 / 135 40% 1 04.12.2026 -
José Marsà KV Mechelen Aktiv 133 / 113 40% 1 03.12.2026 -
Jesús Orozco Chiquete Cruz Azul Aktiv 110 / 131 40% 1 01.12.2026 -
Quinten Timber Crystal Palace Aktiv 150 / 147 40% 1 01.12.2026 -
Adam Wharton Crystal Palace Aktiv 148 / 157 40% 1 04.11.2026 -
Willian Pacho Paris Saint-Germain Aktiv 173 / 168 40% 1 06.10.2026 -
Joaquín García Vélez Aktiv 140 / 114 40% 1 06.10.2026 -
Calvin Bassey Fulham Aktiv 157 / 146 40% 1 08.09.2026 -
Aiham Ousou Charleroi Aktiv 139 / 121 40% 1 08.09.2026 -
Ethan Ampadu Leeds United Aktiv 129 / 137 40% 1 07.09.2026 -